Time;durP1;ratioP1;P1;durP2;ratioP2;P2;SDS_P1;SDS_P2;PMS_P1;PMS_P2;Temp;Humidity;BMP_temperature;BMP_pressure;BME280_temperature;BME280_humidity;BME280_pressure;Samples;Min_cycle;Max_cycle;Signal;HPM_P1;HPM_P2
2022/01/05 00:01:16;;;;;;;8.07;1.50;;;25.20;99.90;;;;;;5053266;28;20020;-65
2022/01/05 00:03:43;;;;;;;13.80;2.10;;;25.00;99.90;;;;;;5068612;28;20054;-65
2022/01/05 00:06:10;;;;;;;12.15;1.85;;;24.70;99.90;;;;;;5062447;28;20048;-65
2022/01/05 00:08:38;;;;;;;9.48;1.80;;;24.60;99.90;;;;;;5068844;28;20027;-66
2022/01/05 00:11:06;;;;;;;10.15;2.35;;;24.50;99.90;;;;;;5066065;28;20141;-65
2022/01/05 00:13:34;;;;;;;15.30;2.88;;;24.30;99.90;;;;;;5066147;28;20020;-65
2022/01/05 00:16:01;;;;;;;11.65;2.00;;;24.30;99.90;;;;;;5065658;28;20025;-65
2022/01/05 00:18:28;;;;;;;8.00;1.45;;;24.20;99.90;;;;;;5064604;28;20103;-65
2022/01/05 00:20:56;;;;;;;9.77;1.88;;;24.10;99.90;;;;;;5075972;28;20029;-66
2022/01/05 00:23:23;;;;;;;12.25;3.60;;;24.20;99.90;;;;;;5067103;28;20025;-65
2022/01/05 00:25:51;;;;;;;10.73;2.20;;;24.30;99.90;;;;;;5069900;28;20020;-65
2022/01/05 00:28:18;;;;;;;11.50;2.22;;;24.40;99.90;;;;;;5068655;28;20112;-65
2022/01/05 00:30:45;;;;;;;11.40;1.70;;;24.50;99.90;;;;;;5052439;28;20021;-65
2022/01/05 00:33:15;;;;;;;8.60;1.83;;;24.60;99.90;;;;;;5063770;28;20074;-65
2022/01/05 00:35:42;;;;;;;9.50;1.95;;;24.80;99.90;;;;;;5056090;28;20115;-65
2022/01/05 00:38:10;;;;;;;8.73;1.67;;;24.90;99.90;;;;;;5070302;28;20023;-65
2022/01/05 00:40:37;;;;;;;6.82;1.50;;;24.50;99.90;;;;;;5072180;28;20082;-65
2022/01/05 00:43:04;;;;;;;6.80;1.35;;;24.30;99.90;;;;;;5069614;28;20035;-65
2022/01/05 00:45:31;;;;;;;7.50;1.17;;;23.90;99.90;;;;;;5071776;28;20477;-65
2022/01/05 00:47:59;;;;;;;4.70;0.88;;;23.80;99.90;;;;;;5075134;28;20028;-65
2022/01/05 00:50:26;;;;;;;9.85;1.23;;;23.90;99.90;;;;;;5062982;28;20036;-65
2022/01/05 00:53:00;;;;;;;7.43;1.67;;;23.80;99.90;;;;;;5063005;28;20060;-65
2022/01/05 00:55:28;;;;;;;4.95;0.88;;;23.70;99.90;;;;;;5064757;28;20060;-65
2022/01/05 00:57:56;;;;;;;8.75;1.42;;;23.70;99.90;;;;;;5063100;28;20389;-65
2022/01/05 01:00:23;;;;;;;7.28;1.05;;;23.90;99.90;;;;;;5071386;28;20027;-65
2022/01/05 01:02:50;;;;;;;8.40;1.40;;;24.20;99.90;;;;;;5066867;28;20032;-65
2022/01/05 01:05:18;;;;;;;8.82;1.35;;;24.40;99.90;;;;;;5064744;28;20035;-65
2022/01/05 01:07:46;;;;;;;8.13;1.73;;;24.50;99.90;;;;;;5048779;28;20060;-65
2022/01/05 01:10:14;;;;;;;7.43;1.15;;;24.50;99.90;;;;;;5065823;28;20504;-65
2022/01/05 01:12:41;;;;;;;8.82;1.15;;;24.50;99.90;;;;;;5050531;28;20031;-65
2022/01/05 01:15:11;;;;;;;6.57;1.00;;;24.40;99.90;;;;;;5064544;28;20027;-65
2022/01/05 01:17:39;;;;;;;11.57;1.77;;;24.40;99.90;;;;;;5060094;28;20024;-65
2022/01/05 01:20:07;;;;;;;8.05;2.25;;;24.60;99.90;;;;;;5065488;28;20032;-65
2022/01/05 01:22:35;;;;;;;9.60;1.77;;;24.80;99.90;;;;;;5068940;28;20020;-65
2022/01/05 01:25:03;;;;;;;8.18;1.75;;;24.90;99.90;;;;;;5064754;28;20082;-64
2022/01/05 01:27:31;;;;;;;8.00;1.67;;;25.00;99.90;;;;;;5074629;28;20381;-65
2022/01/05 01:29:58;;;;;;;9.30;1.35;;;25.00;99.90;;;;;;5069846;28;20426;-64
2022/01/05 01:32:26;;;;;;;10.23;1.38;;;25.00;99.90;;;;;;5069548;28;20052;-65
2022/01/05 01:34:53;;;;;;;15.68;2.35;;;25.00;99.90;;;;;;5071146;28;20421;-65
2022/01/05 01:37:20;;;;;;;9.25;1.45;;;25.00;99.90;;;;;;5070326;28;21936;-65
2022/01/05 01:39:47;;;;;;;13.40;1.95;;;24.90;99.90;;;;;;5071849;28;20029;-65
2022/01/05 01:42:15;;;;;;;11.32;2.05;;;25.00;99.90;;;;;;5067273;28;20021;-65
2022/01/05 01:44:43;;;;;;;13.57;2.10;;;24.90;99.90;;;;;;5071308;28;20508;-65
2022/01/05 01:47:10;;;;;;;12.32;2.28;;;24.70;99.90;;;;;;5064842;28;20082;-65
2022/01/05 01:49:37;;;;;;;13.65;2.30;;;24.10;99.90;;;;;;5069773;28;20512;-67
2022/01/05 01:52:05;;;;;;;9.77;2.35;;;23.60;99.90;;;;;;5068612;28;20051;-67
2022/01/05 01:54:35;;;;;;;17.60;3.33;;;23.40;99.90;;;;;;5066439;28;20506;-66
2022/01/05 01:57:03;;;;;;;15.75;2.72;;;23.40;99.90;;;;;;5063935;28;20178;-67
2022/01/05 01:59:30;;;;;;;15.73;2.25;;;23.40;99.90;;;;;;5047858;28;20033;-67
2022/01/05 02:01:58;;;;;;;15.35;2.65;;;23.40;99.90;;;;;;5056910;28;20020;-67
2022/01/05 02:04:25;;;;;;;18.55;2.90;;;23.50;99.90;;;;;;5051061;28;20036;-66
2022/01/05 02:06:53;;;;;;;18.77;2.28;;;23.80;99.90;;;;;;5063144;28;20063;-66
2022/01/05 02:09:20;;;;;;;18.10;2.30;;;23.90;99.90;;;;;;5065893;28;20037;-66
2022/01/05 02:11:47;;;;;;;10.55;1.70;;;23.90;99.90;;;;;;5066296;28;20028;-66
2022/01/05 02:14:15;;;;;;;10.98;1.80;;;23.90;99.90;;;;;;5069632;28;20552;-66
2022/01/05 02:16:44;;;;;;;10.05;1.50;;;23.70;99.90;;;;;;5061461;28;20027;-66
2022/01/05 02:19:13;;;;;;;10.40;1.25;;;23.70;99.90;;;;;;5065494;28;20422;-66
2022/01/05 02:21:42;;;;;;;2.80;0.40;;;23.80;99.90;;;;;;5051583;28;20017;-66
2022/01/05 02:24:10;;;;;;;6.18;0.73;;;23.80;99.90;;;;;;5070440;28;20024;-66
2022/01/05 02:26:39;;;;;;;4.53;0.70;;;24.00;99.90;;;;;;5060531;28;20036;-66
2022/01/05 02:29:06;;;;;;;5.47;0.98;;;24.20;99.90;;;;;;5066950;28;20032;-66
2022/01/05 02:31:34;;;;;;;4.28;0.52;;;24.50;99.90;;;;;;5070173;28;20435;-66
2022/01/05 02:34:02;;;;;;;9.88;0.95;;;24.50;99.90;;;;;;5065382;28;20058;-66
2022/01/05 02:36:29;;;;;;;4.80;0.60;;;24.90;99.90;;;;;;5066154;28;20476;-66
2022/01/05 02:38:57;;;;;;;8.02;1.10;;;24.90;99.90;;;;;;5069427;28;20354;-66
2022/01/05 02:41:25;;;;;;;3.70;0.60;;;25.00;99.90;;;;;;5066731;28;20073;-66
2022/01/05 02:43:53;;;;;;;7.35;0.93;;;24.70;99.90;;;;;;5069362;28;20017;-66
2022/01/05 02:46:22;;;;;;;4.85;0.80;;;24.70;99.90;;;;;;5042621;28;20440;-66
2022/01/05 02:48:52;;;;;;;6.30;1.25;;;24.70;99.90;;;;;;5064964;28;20112;-65
2022/01/05 02:51:20;;;;;;;4.63;0.40;;;24.70;99.90;;;;;;5072070;28;20039;-65
2022/01/05 02:53:48;;;;;;;2.35;0.47;;;24.70;99.90;;;;;;5068469;28;20103;-65
2022/01/05 02:56:15;;;;;;;3.38;0.28;;;24.80;99.90;;;;;;5073972;28;20025;-65
2022/01/05 02:58:42;;;;;;;5.57;1.02;;;24.50;99.90;;;;;;5068446;28;20107;-65
2022/01/05 03:01:10;;;;;;;1.45;0.30;;;24.50;99.90;;;;;;5068937;28;20037;-65
2022/01/05 03:03:37;;;;;;;5.07;0.52;;;24.30;99.90;;;;;;5072929;28;20031;-65
2022/01/05 03:06:04;;;;;;;4.78;0.38;;;24.30;99.90;;;;;;5069422;28;20098;-65
2022/01/05 03:08:32;;;;;;;5.00;0.77;;;24.30;99.90;;;;;;5068102;28;20024;-65
2022/01/05 03:10:59;;;;;;;5.78;0.57;;;24.40;99.90;;;;;;5073655;28;20085;-65
2022/01/05 03:13:27;;;;;;;3.58;0.30;;;24.40;99.90;;;;;;5069396;28;20032;-65
2022/01/05 03:15:55;;;;;;;2.38;0.30;;;24.30;99.90;;;;;;5072440;28;20073;-65
2022/01/05 03:18:22;;;;;;;2.50;0.55;;;24.30;99.90;;;;;;5070666;28;20033;-66
2022/01/05 03:20:50;;;;;;;2.33;0.30;;;24.20;99.90;;;;;;5073167;28;20545;-66
2022/01/05 03:23:17;;;;;;;3.42;0.65;;;24.30;99.90;;;;;;5066859;28;20401;-65
2022/01/05 03:25:45;;;;;;;2.05;0.30;;;24.40;99.90;;;;;;5070085;28;20040;-66
2022/01/05 03:28:12;;;;;;;2.95;0.52;;;24.40;99.90;;;;;;5070915;28;20107;-65
2022/01/05 03:30:41;;;;;;;2.45;0.40;;;24.30;99.90;;;;;;5069641;28;20628;-65
2022/01/05 03:33:10;;;;;;;5.53;0.30;;;24.30;99.90;;;;;;5071480;28;20033;-66
2022/01/05 03:35:41;;;;;;;4.18;1.10;;;23.90;99.90;;;;;;5072194;28;20036;-65
2022/01/05 03:38:09;;;;;;;4.70;1.15;;;23.90;99.90;;;;;;5071166;28;20037;-65
2022/01/05 03:40:37;;;;;;;3.50;0.93;;;23.80;99.90;;;;;;5069383;28;20031;-65
2022/01/05 03:43:06;;;;;;;5.05;0.90;;;23.80;99.90;;;;;;5068465;28;20600;-65
2022/01/05 03:45:35;;;;;;;7.95;1.00;;;23.80;99.90;;;;;;5065087;28;20061;-65
2022/01/05 03:48:04;;;;;;;5.93;1.00;;;23.70;99.90;;;;;;5067855;28;20024;-65
2022/01/05 03:50:31;;;;;;;7.30;1.15;;;23.60;99.90;;;;;;5072261;28;20050;-65
2022/01/05 03:52:59;;;;;;;5.32;0.90;;;23.60;99.90;;;;;;5067426;28;20021;-65
2022/01/05 03:55:26;;;;;;;4.40;0.60;;;23.60;99.90;;;;;;5065947;28;20041;-65
2022/01/05 03:57:53;;;;;;;8.82;1.17;;;23.50;99.90;;;;;;5071372;28;20055;-65
2022/01/05 04:00:21;;;;;;;7.35;1.15;;;23.50;99.90;;;;;;5069247;28;20035;-66
2022/01/05 04:02:48;;;;;;;4.18;0.90;;;23.40;99.90;;;;;;5065360;28;20035;-66
2022/01/05 04:05:16;;;;;;;5.30;0.40;;;23.40;99.90;;;;;;5065677;28;20032;-66
2022/01/05 04:07:43;;;;;;;4.03;0.60;;;23.40;99.90;;;;;;5065171;28;20043;-66
2022/01/05 04:10:10;;;;;;;5.05;0.40;;;23.40;99.90;;;;;;5066294;28;20361;-66
2022/01/05 04:12:38;;;;;;;5.40;0.75;;;23.30;99.90;;;;;;5065061;28;20016;-66
2022/01/05 04:15:06;;;;;;;6.28;1.08;;;23.30;99.90;;;;;;5071289;28;20314;-66
2022/01/05 04:17:33;;;;;;;4.60;1.02;;;23.40;99.90;;;;;;5063225;28;20034;-66
2022/01/05 04:20:00;;;;;;;4.15;0.75;;;23.40;99.90;;;;;;5065671;28;20103;-67
2022/01/05 04:22:28;;;;;;;3.78;0.80;;;23.30;99.90;;;;;;5071524;28;20025;-67
2022/01/05 04:24:55;;;;;;;5.57;0.90;;;23.20;99.90;;;;;;5067426;28;20103;-67
2022/01/05 04:27:22;;;;;;;5.28;1.08;;;23.10;99.90;;;;;;5071097;28;20681;-67
2022/01/05 04:29:50;;;;;;;5.95;0.70;;;23.00;99.90;;;;;;5073067;28;20044;-66
2022/01/05 04:32:17;;;;;;;6.25;1.38;;;23.00;99.90;;;;;;5066437;28;20020;-67
2022/01/05 04:34:44;;;;;;;5.07;1.88;;;23.00;99.90;;;;;;5073222;28;20114;-66
2022/01/05 04:37:12;;;;;;;4.35;1.40;;;23.10;99.90;;;;;;5058241;28;20020;-66
2022/01/05 04:39:39;;;;;;;6.30;1.02;;;23.20;99.90;;;;;;5072902;28;20388;-66
2022/01/05 04:42:07;;;;;;;4.32;1.20;;;23.00;99.90;;;;;;5067254;28;20088;-66
2022/01/05 04:44:34;;;;;;;3.60;0.60;;;22.90;99.90;;;;;;5070751;28;20064;-66
2022/01/05 04:47:02;;;;;;;5.03;0.93;;;22.90;99.90;;;;;;5070882;28;20041;-66
2022/01/05 04:49:29;;;;;;;4.57;0.52;;;23.00;99.90;;;;;;5070346;28;20032;-66
2022/01/05 04:51:56;;;;;;;6.47;1.02;;;23.00;99.90;;;;;;5069992;28;20025;-65
2022/01/05 04:54:24;;;;;;;3.00;0.70;;;23.10;99.90;;;;;;5071015;28;20469;-65
2022/01/05 04:56:51;;;;;;;3.30;0.57;;;23.10;99.90;;;;;;5070063;28;20028;-66
2022/01/05 04:59:18;;;;;;;5.50;1.23;;;23.10;99.90;;;;;;5072758;28;20030;-65
2022/01/05 05:01:45;;;;;;;6.97;1.23;;;23.20;99.90;;;;;;5068545;28;20029;-65
2022/01/05 05:04:13;;;;;;;6.32;1.00;;;23.10;99.90;;;;;;5068737;28;20047;-66
2022/01/05 05:06:40;;;;;;;5.10;0.90;;;23.10;99.90;;;;;;5053143;28;20056;-65
2022/01/05 05:09:07;;;;;;;5.57;1.30;;;23.10;99.90;;;;;;5064833;28;20093;-66
2022/01/05 05:11:35;;;;;;;2.90;0.77;;;23.20;99.90;;;;;;5071146;28;20078;-65
2022/01/05 05:14:02;;;;;;;9.95;1.50;;;23.20;99.90;;;;;;5063346;28;20031;-65
2022/01/05 05:16:29;;;;;;;11.88;1.88;;;23.20;99.90;;;;;;5069021;28;20029;-65
2022/01/05 05:18:56;;;;;;;10.95;1.80;;;23.20;99.90;;;;;;5068458;28;20419;-66
2022/01/05 05:21:24;;;;;;;9.93;1.70;;;23.20;99.90;;;;;;5069462;28;20499;-65
2022/01/05 05:23:51;;;;;;;12.48;1.65;;;23.20;99.90;;;;;;5051860;28;20025;-65
2022/01/05 05:26:18;;;;;;;8.88;1.42;;;23.30;99.90;;;;;;5070352;28;20035;-65
2022/01/05 05:28:45;;;;;;;6.30;1.67;;;23.40;99.90;;;;;;5068776;28;20066;-65
2022/01/05 05:31:13;;;;;;;6.88;1.40;;;23.40;99.90;;;;;;5056650;28;20021;-64
2022/01/05 05:33:40;;;;;;;7.35;1.15;;;23.40;99.90;;;;;;5066953;28;20032;-64
2022/01/05 05:36:07;;;;;;;10.45;1.90;;;23.40;99.90;;;;;;5070682;28;20125;-64
2022/01/05 05:38:35;;;;;;;10.15;1.52;;;23.50;99.90;;;;;;5070476;28;20035;-64
2022/01/05 05:41:02;;;;;;;12.35;2.35;;;23.60;99.90;;;;;;5070511;28;20025;-64
2022/01/05 05:43:29;;;;;;;15.00;2.70;;;23.60;99.90;;;;;;5067977;28;20020;-66
2022/01/05 05:45:57;;;;;;;11.90;1.85;;;23.60;99.90;;;;;;5066451;28;20029;-64
2022/01/05 05:48:24;;;;;;;14.65;2.45;;;23.80;99.90;;;;;;5069078;28;20043;-66
2022/01/05 05:50:53;;;;;;;11.60;2.20;;;23.70;99.90;;;;;;5063641;28;20098;-65
2022/01/05 05:53:21;;;;;;;16.08;2.65;;;23.60;99.90;;;;;;5054733;28;20039;-65
2022/01/05 05:55:48;;;;;;;8.50;2.05;;;23.50;99.90;;;;;;5057514;28;20040;-65
2022/01/05 05:58:15;;;;;;;13.30;2.30;;;23.50;99.90;;;;;;5072467;28;20489;-65
2022/01/05 06:00:43;;;;;;;15.63;2.75;;;23.50;99.90;;;;;;5070638;28;20433;-65
2022/01/05 06:03:10;;;;;;;13.40;2.88;;;23.50;99.90;;;;;;5066555;28;20161;-65
2022/01/05 06:05:37;;;;;;;9.60;1.75;;;23.60;99.90;;;;;;5071280;28;20060;-65
2022/01/05 06:08:05;;;;;;;9.98;2.13;;;23.60;99.90;;;;;;5073356;28;20040;-65
2022/01/05 06:10:32;;;;;;;10.13;1.85;;;23.60;99.90;;;;;;5070793;28;20029;-65
2022/01/05 06:13:00;;;;;;;8.50;1.67;;;23.70;99.90;;;;;;5059708;28;20025;-65
2022/01/05 06:15:27;;;;;;;10.57;1.98;;;23.70;99.90;;;;;;5066049;28;20098;-65
2022/01/05 06:17:54;;;;;;;16.60;3.20;;;23.80;99.90;;;;;;5066002;28;20020;-65
2022/01/05 06:20:22;;;;;;;9.93;1.73;;;23.90;99.90;;;;;;5075617;28;20103;-65
2022/01/05 06:22:49;;;;;;;15.15;2.10;;;23.90;99.90;;;;;;5070381;28;20008;-65
2022/01/05 06:25:17;;;;;;;11.52;2.17;;;23.90;99.90;;;;;;5075078;28;20040;-65
2022/01/05 06:27:44;;;;;;;11.57;2.00;;;23.90;99.90;;;;;;5070034;28;20059;-65
2022/01/05 06:30:12;;;;;;;14.35;2.35;;;24.00;99.90;;;;;;5065032;28;20029;-65
2022/01/05 06:32:47;;;;;;;16.55;3.53;;;24.10;99.90;;;;;;5073787;28;20024;-65
2022/01/05 06:35:16;;;;;;;17.02;3.33;;;24.00;99.90;;;;;;5075151;28;20021;-65
2022/01/05 06:37:43;;;;;;;15.23;3.72;;;23.90;99.90;;;;;;5071805;28;20024;-66
2022/01/05 06:40:11;;;;;;;15.00;3.00;;;24.00;99.90;;;;;;5065645;28;20036;-65
2022/01/05 06:42:38;;;;;;;19.25;3.15;;;24.00;99.90;;;;;;5068676;28;20016;-65
2022/01/05 06:45:06;;;;;;;18.63;3.97;;;24.00;99.90;;;;;;5071827;28;20433;-65
2022/01/05 06:47:33;;;;;;;19.13;3.97;;;24.10;99.90;;;;;;5067003;28;20090;-65
2022/01/05 06:50:01;;;;;;;21.67;3.80;;;24.20;99.90;;;;;;5063170;28;20032;-65
2022/01/05 06:52:28;;;;;;;18.15;3.45;;;25.10;99.90;;;;;;5062234;28;20017;-65
2022/01/05 06:54:56;;;;;;;21.95;4.18;;;25.30;99.90;;;;;;5073782;28;20097;-65
2022/01/05 06:57:23;;;;;;;23.25;4.00;;;24.70;99.90;;;;;;5073225;28;20021;-65
2022/01/05 06:59:50;;;;;;;18.00;3.42;;;24.50;99.90;;;;;;5056579;28;20384;-65
2022/01/05 07:02:18;;;;;;;19.23;3.97;;;24.50;99.90;;;;;;5072323;28;20093;-66
2022/01/05 07:04:45;;;;;;;26.20;4.45;;;24.50;99.90;;;;;;5074642;28;20040;-65
2022/01/05 07:07:12;;;;;;;22.30;5.20;;;24.40;99.90;;;;;;5047969;28;20142;-65
2022/01/05 07:09:39;;;;;;;18.98;4.43;;;24.40;99.90;;;;;;5069535;28;20025;-65
2022/01/05 07:12:07;;;;;;;23.35;5.18;;;24.40;99.90;;;;;;5074447;28;20370;-65
2022/01/05 07:14:35;;;;;;;23.92;4.45;;;24.30;99.90;;;;;;5061570;28;20120;-64
2022/01/05 07:17:02;;;;;;;22.30;4.25;;;24.60;99.90;;;;;;5070044;28;20016;-65
2022/01/05 07:19:29;;;;;;;23.88;4.28;;;24.60;99.90;;;;;;5060941;28;20020;-65
2022/01/05 07:21:56;;;;;;;23.20;4.38;;;24.50;99.90;;;;;;5071734;28;20029;-64
2022/01/05 07:24:24;;;;;;;20.83;4.40;;;24.70;99.90;;;;;;5061556;28;20059;-64
2022/01/05 07:26:51;;;;;;;24.85;3.80;;;25.00;99.90;;;;;;5073794;28;20039;-64
2022/01/05 07:29:19;;;;;;;20.17;4.03;;;24.90;99.90;;;;;;5069858;28;20063;-64
2022/01/05 07:31:47;;;;;;;26.90;4.60;;;24.70;99.90;;;;;;5067461;28;20480;-65
2022/01/05 07:34:14;;;;;;;30.65;5.95;;;24.50;99.90;;;;;;5063219;28;20025;-65
2022/01/05 07:36:42;;;;;;;23.00;4.80;;;24.50;99.90;;;;;;5070002;28;20063;-65
2022/01/05 07:39:10;;;;;;;27.98;5.40;;;24.60;99.90;;;;;;5073763;28;20108;-65
2022/01/05 07:41:38;;;;;;;25.48;4.82;;;24.50;99.90;;;;;;5073158;28;20071;-65
2022/01/05 07:44:07;;;;;;;27.45;5.53;;;24.30;99.90;;;;;;5072753;28;20033;-64
2022/01/05 07:46:35;;;;;;;28.83;4.40;;;24.60;99.90;;;;;;5067213;28;20036;-65
2022/01/05 07:49:05;;;;;;;27.25;5.50;;;24.50;99.90;;;;;;5062753;28;20193;-65
2022/01/05 07:51:32;;;;;;;31.20;5.50;;;24.50;99.90;;;;;;5068592;28;20347;-65
2022/01/05 07:54:00;;;;;;;30.20;4.53;;;24.40;99.90;;;;;;5057131;28;20469;-65
2022/01/05 07:56:28;;;;;;;35.97;7.05;;;24.30;99.90;;;;;;5069501;28;20032;-65
2022/01/05 07:58:55;;;;;;;28.70;4.80;;;24.20;99.90;;;;;;5070020;28;20407;-65
2022/01/05 08:01:23;;;;;;;30.23;5.38;;;24.20;99.90;;;;;;5061578;28;20025;-65
2022/01/05 08:03:51;;;;;;;30.88;5.53;;;24.10;99.90;;;;;;5068635;28;20025;-65
2022/01/05 08:06:18;;;;;;;30.15;6.15;;;24.00;99.90;;;;;;5072911;28;20052;-65
2022/01/05 08:08:46;;;;;;;36.35;6.65;;;24.00;99.90;;;;;;5072639;28;20029;-65
2022/01/05 08:11:14;;;;;;;31.48;6.43;;;23.90;99.90;;;;;;5065862;28;20017;-65
2022/01/05 08:13:41;;;;;;;38.70;6.95;;;24.00;99.90;;;;;;5072383;28;20477;-65
2022/01/05 08:16:09;;;;;;;28.92;5.68;;;23.90;99.90;;;;;;5052449;28;20089;-64
2022/01/05 08:18:37;;;;;;;28.42;5.05;;;23.90;99.90;;;;;;5042901;28;20036;-64
2022/01/05 08:21:04;;;;;;;31.70;6.10;;;23.90;99.90;;;;;;5051574;28;20028;-65
2022/01/05 08:23:32;;;;;;;34.15;4.95;;;23.90;99.90;;;;;;5067893;28;20036;-65
2022/01/05 08:25:59;;;;;;;31.95;6.35;;;23.90;99.90;;;;;;5071938;28;20043;-64
2022/01/05 08:28:26;;;;;;;23.33;4.72;;;23.80;99.90;;;;;;5073009;28;20115;-64
2022/01/05 08:30:54;;;;;;;34.28;5.95;;;23.80;99.90;;;;;;5052002;28;20546;-64
2022/01/05 08:33:21;;;;;;;32.30;6.28;;;23.80;99.90;;;;;;5058508;28;20055;-65
2022/01/05 08:35:49;;;;;;;29.30;7.40;;;23.80;99.90;;;;;;5055857;28;20115;-64
2022/01/05 08:38:17;;;;;;;36.55;6.85;;;23.70;99.90;;;;;;5064535;28;20025;-64
2022/01/05 08:40:45;;;;;;;34.70;5.53;;;23.70;99.90;;;;;;5071624;28;20052;-64
2022/01/05 08:43:14;;;;;;;34.08;6.93;;;23.70;99.90;;;;;;5072868;28;20504;-64
2022/01/05 08:45:43;;;;;;;26.33;6.03;;;23.70;99.90;;;;;;5069052;28;20024;-64
2022/01/05 08:48:11;;;;;;;35.88;6.28;;;23.70;99.90;;;;;;5078448;28;20043;-64
2022/01/05 08:50:39;;;;;;;30.33;6.10;;;23.70;99.90;;;;;;5071446;28;20082;-64
2022/01/05 08:53:08;;;;;;;24.05;4.45;;;23.60;99.90;;;;;;5071785;28;20185;-64
2022/01/05 08:55:40;;;;;;;26.63;4.88;;;23.70;99.90;;;;;;5058158;28;20100;-64
2022/01/05 08:58:08;;;;;;;28.45;4.90;;;23.60;99.90;;;;;;5048527;28;20468;-64
2022/01/05 09:00:36;;;;;;;28.95;6.15;;;23.60;99.90;;;;;;5066499;28;20032;-64
2022/01/05 09:03:05;;;;;;;31.17;5.30;;;23.60;99.90;;;;;;5067466;28;20025;-64
2022/01/05 09:05:33;;;;;;;42.55;6.95;;;23.50;99.90;;;;;;5072134;28;20021;-64
2022/01/05 09:08:01;;;;;;;26.77;5.63;;;23.50;99.90;;;;;;5068229;28;20025;-64
2022/01/05 09:10:29;;;;;;;36.28;6.75;;;23.50;99.90;;;;;;5058853;28;20151;-64
2022/01/05 09:12:57;;;;;;;28.15;4.85;;;23.50;99.90;;;;;;5071969;28;20370;-65
2022/01/05 09:15:25;;;;;;;34.78;6.10;;;23.50;99.90;;;;;;5072320;28;20021;-64
2022/01/05 09:17:53;;;;;;;27.13;5.28;;;23.50;99.90;;;;;;5067040;28;20037;-64
2022/01/05 09:20:20;;;;;;;29.38;5.32;;;23.40;99.90;;;;;;5071961;28;20036;-64
2022/01/05 09:22:48;;;;;;;28.90;4.63;;;23.40;99.90;;;;;;5071689;28;20033;-64
2022/01/05 09:25:18;;;;;;;38.72;6.15;;;23.40;99.90;;;;;;5063248;28;20032;-64
2022/01/05 09:27:46;;;;;;;28.10;5.38;;;23.40;99.90;;;;;;5070502;28;20028;-64
2022/01/05 09:30:15;;;;;;;28.88;5.40;;;23.40;99.90;;;;;;5071780;28;20036;-64
2022/01/05 09:32:42;;;;;;;29.58;5.53;;;23.40;99.90;;;;;;5055564;28;20055;-64
2022/01/05 09:35:14;;;;;;;31.23;5.00;;;23.40;99.90;;;;;;5055620;28;20021;-64
2022/01/05 09:37:54;;;;;;;29.10;5.22;;;23.40;99.90;;;;;;5068789;28;20016;-64
2022/01/05 09:43:09;;;;;;;27.67;4.68;;;23.40;99.90;;;;;;5058903;28;20036;-65
2022/01/05 09:45:38;;;;;;;38.90;5.75;;;23.50;99.90;;;;;;5066509;28;20021;-64
2022/01/05 09:48:38;;;;;;;29.48;6.10;;;23.40;99.90;;;;;;5066898;28;20036;-65
2022/01/05 09:51:10;;;;;;;33.70;6.28;;;23.40;99.90;;;;;;5064105;28;20020;-64
2022/01/05 09:53:38;;;;;;;39.45;6.03;;;23.40;99.90;;;;;;5071787;28;20028;-64
2022/01/05 09:56:06;;;;;;;34.88;6.43;;;23.40;99.90;;;;;;5072026;28;20024;-64
2022/01/05 09:58:36;;;;;;;37.05;6.07;;;23.40;99.90;;;;;;5049797;28;20427;-64
2022/01/05 10:01:05;;;;;;;24.20;4.70;;;23.40;99.90;;;;;;5046831;28;20020;-64
2022/01/05 10:03:32;;;;;;;28.33;5.00;;;23.40;99.90;;;;;;5057848;28;20040;-64
2022/01/05 10:06:01;;;;;;;32.22;5.00;;;23.30;99.90;;;;;;5058609;28;20049;-64
2022/01/05 10:08:29;;;;;;;41.47;6.47;;;23.30;99.90;;;;;;5056498;28;20474;-65
2022/01/05 10:10:57;;;;;;;33.30;5.38;;;23.40;99.90;;;;;;5068842;28;20469;-64
2022/01/05 10:13:24;;;;;;;29.08;5.22;;;23.40;99.90;;;;;;5070848;28;20031;-64
2022/01/05 10:15:52;;;;;;;35.05;5.90;;;23.40;99.90;;;;;;5060628;28;20025;-64
2022/01/05 10:18:22;;;;;;;36.50;6.32;;;23.40;99.90;;;;;;5052753;28;20494;-64
2022/01/05 10:20:56;;;;;;;36.20;5.38;;;23.40;99.90;;;;;;5070471;28;20025;-64
2022/01/05 10:23:50;;;;;;;28.50;5.60;;;23.40;99.90;;;;;;5063721;28;20029;-64
2022/01/05 10:26:23;;;;;;;38.72;6.15;;;23.40;99.90;;;;;;5059182;28;20366;-64
2022/01/05 10:28:52;;;;;;;34.95;6.65;;;23.40;99.90;;;;;;5061786;28;20071;-65
2022/01/05 10:31:25;;;;;;;31.63;5.90;;;23.40;99.90;;;;;;5071114;28;20362;-64
2022/01/05 10:33:53;;;;;;;37.53;5.30;;;23.40;99.90;;;;;;5068240;28;20025;-64
2022/01/05 10:36:21;;;;;;;39.50;6.50;;;23.40;99.90;;;;;;5071719;28;20056;-64
2022/01/05 10:38:56;;;;;;;31.70;6.40;;;23.30;99.90;;;;;;5070475;28;20835;-65
2022/01/05 10:41:26;;;;;;;36.72;6.43;;;23.30;99.90;;;;;;5056051;28;20039;-64
2022/01/05 10:44:22;;;;;;;45.40;5.85;;;23.30;99.90;;;;;;5070570;28;20044;-65
2022/01/05 10:47:09;;;;;;;27.05;5.22;;;23.30;99.90;;;;;;5063306;28;20036;-64
2022/01/05 10:49:40;;;;;;;33.40;6.47;;;23.30;99.90;;;;;;5074581;28;20354;-65
2022/01/05 10:52:28;;;;;;;35.38;5.70;;;23.30;99.90;;;;;;5074372;28;20169;-65
2022/01/05 10:55:08;;;;;;;36.45;5.80;;;23.30;99.90;;;;;;5074027;28;20162;-65
2022/01/05 10:57:36;;;;;;;33.28;5.85;;;23.30;99.90;;;;;;5056805;28;20485;-65
2022/01/05 11:00:07;;;;;;;30.55;6.07;;;23.30;99.90;;;;;;5056345;28;20029;-64
2022/01/05 11:02:36;;;;;;;27.30;5.13;;;23.30;99.90;;;;;;5049848;28;20028;-65
2022/01/05 11:05:09;;;;;;;36.90;7.57;;;23.30;99.90;;;;;;5072274;28;20021;-65
2022/01/05 11:07:40;;;;;;;27.83;4.93;;;23.30;99.90;;;;;;5072033;28;20040;-65
2022/01/05 11:10:10;;;;;;;26.40;4.25;;;23.30;99.90;;;;;;5068376;28;20024;-66
2022/01/05 11:12:57;;;;;;;37.63;6.20;;;23.30;99.90;;;;;;5064203;28;20020;-65
2022/01/05 11:15:35;;;;;;;37.95;6.50;;;23.40;99.90;;;;;;5068711;28;20103;-65
2022/01/05 11:18:21;;;;;;;39.13;6.60;;;23.30;99.90;;;;;;5067674;28;20016;-65
2022/01/05 11:20:51;;;;;;;33.80;6.55;;;23.40;99.90;;;;;;5050168;28;20055;-65
2022/01/05 11:23:21;;;;;;;37.63;5.53;;;23.40;99.90;;;;;;5065097;28;20496;-65
2022/01/05 11:25:49;;;;;;;32.28;5.32;;;23.40;99.90;;;;;;5073480;28;20025;-65
2022/01/05 11:28:19;;;;;;;37.38;6.47;;;23.40;99.90;;;;;;5071057;28;20021;-65
2022/01/05 11:30:48;;;;;;;32.50;5.82;;;23.40;99.90;;;;;;5054707;28;20477;-65
2022/01/05 11:33:15;;;;;;;35.45;5.28;;;23.40;99.90;;;;;;5059661;28;20090;-65
2022/01/05 11:35:43;;;;;;;36.70;5.90;;;23.30;99.90;;;;;;5074384;28;20401;-65
2022/01/05 11:38:11;;;;;;;38.83;5.75;;;23.30;99.90;;;;;;5073271;28;20435;-65
2022/01/05 11:40:45;;;;;;;32.97;6.20;;;23.30;99.90;;;;;;5072461;28;20451;-64
2022/01/05 11:43:21;;;;;;;34.35;7.18;;;23.20;99.90;;;;;;5068554;28;20020;-64
2022/01/05 11:45:50;;;;;;;31.48;6.85;;;23.10;99.90;;;;;;5058946;28;20037;-65
2022/01/05 11:48:30;;;;;;;32.65;5.22;;;23.10;99.90;;;;;;5068535;28;20059;-66
2022/01/05 11:51:03;;;;;;;17.70;3.67;;;22.90;99.90;;;;;;5069189;28;20533;-66
2022/01/05 11:53:43;;;;;;;15.83;2.97;;;22.70;99.90;;;;;;5073903;28;20465;-66
2022/01/05 11:56:15;;;;;;;14.10;2.60;;;22.60;99.90;;;;;;5059196;28;20274;-65
2022/01/05 11:58:54;;;;;;;14.18;2.97;;;22.40;99.90;;;;;;5072652;28;20019;-65
2022/01/05 12:01:23;;;;;;;11.18;2.67;;;22.30;99.90;;;;;;5062673;28;20025;-65
2022/01/05 12:03:53;;;;;;;20.65;2.53;;;22.20;99.90;;;;;;5059878;28;20024;-65
2022/01/05 12:06:21;;;;;;;10.85;2.35;;;22.10;99.90;;;;;;5066089;28;20509;-64
2022/01/05 12:08:50;;;;;;;16.27;3.03;;;22.10;99.90;;;;;;5064915;28;20020;-65
2022/01/05 12:11:42;;;;;;;13.45;2.00;;;22.10;99.90;;;;;;5064572;28;20029;-65
2022/01/05 12:14:09;;;;;;;21.92;2.13;;;22.00;99.90;;;;;;5069601;28;20024;-64
2022/01/05 12:19:37;;;;;;;15.23;2.17;;;21.90;99.90;;;;;;5072734;28;20550;-65
2022/01/05 12:22:18;;;;;;;21.70;3.30;;;22.00;99.90;;;;;;5072008;28;20028;-66
2022/01/05 12:24:54;;;;;;;17.88;2.67;;;22.00;99.90;;;;;;5069779;28;20111;-65
2022/01/05 12:27:25;;;;;;;18.48;2.95;;;21.90;99.90;;;;;;5058333;28;20033;-65
2022/01/05 12:29:54;;;;;;;17.52;2.85;;;21.90;99.90;;;;;;5071278;28;20412;-65
2022/01/05 12:32:43;;;;;;;24.88;3.55;;;21.90;99.90;;;;;;5072242;28;20013;-64
2022/01/05 12:35:18;;;;;;;24.15;3.95;;;22.00;99.90;;;;;;5069890;28;20031;-65
2022/01/05 12:38:06;;;;;;;24.83;3.80;;;22.00;99.90;;;;;;5073048;28;20082;-65
2022/01/05 12:40:46;;;;;;;25.05;4.97;;;22.10;99.90;;;;;;5064651;28;20024;-66
2022/01/05 12:43:13;;;;;;;30.90;4.85;;;22.20;99.90;;;;;;5069700;28;20473;-65
2022/01/05 12:46:11;;;;;;;35.22;5.15;;;22.20;99.90;;;;;;5070402;28;20428;-65
2022/01/05 12:48:43;;;;;;;25.77;4.43;;;22.20;99.90;;;;;;5071524;28;20492;-65
2022/01/05 12:54:08;;;;;;;41.50;7.28;;;22.30;99.90;;;;;;5058248;28;20103;-65
2022/01/05 12:56:37;;;;;;;36.45;5.40;;;22.30;99.90;;;;;;5071772;28;20086;-65
2022/01/05 12:59:07;;;;;;;30.58;5.88;;;22.30;99.90;;;;;;5072481;28;20115;-65